首页
METAR-TAF:

METAR-TAF

机场 :

General Wayne Downing Peoria International Airport

皮奥里亚, 伊利诺伊州, 美国

纬度: 40-40-03N, 经度: 089-41-02W, 海拔: 201米

当前天气观测

该预报发布于50分钟前的00:54 UTC
风速6节,风向西南
温度 18°C
湿度 64%
气压 1013 hPa
能見度: 16.1公里
阴天层高于3600英尺

METAR: KPIA 070054Z 22006KT 10SM OVC036 18/11 A2992 RMK AO2 SLP131 T01780111

时间: 20:44 (01:44 UTC)

预报

该预报发布于2小时和13分钟前的23:31 UTC
预报有效从07日的 00点(UTC)到 07日的 24点(UTC)
风速8节,风向
能見度: 10公里
阴天层高于3500英尺
从 07日的 0400点(UTC)
风速8节,风向南转西南
能見度: 10公里
多云层高于3500英尺
附近有阵雨
从 07日的 1300点(UTC)
风速8节,风向西南
能見度: 10公里
多云层高于2500英尺
从 07日的 1800点(UTC)
风速12节,风向西南,有时为20节阵风
能見度: 10公里
散云层高于3500英尺

TAF: KPIA 062331Z 0700/0724 18008KT P6SM OVC035 FM070400 20008KT P6SM VCSH BKN035 FM071300 22008KT P6SM BKN025 FM071800 23012G20KT P6SM SCT035

超过4000个机场的气象观测和天气预报(METAR&TAF报告)。

可查询的气象台以黄色和红色小点在地图上表示。

将鼠标移到小点上方,可查看气象台名称。

然后点击查看天气观测和预报。

如需切换地图:点击带黑十字的绿色按钮放大地图;点击带横线的绿色按钮缩小地图;或者点击绿色箭头查看邻近地区的地图。


METAR-TAF: